Time;durP1;ratioP1;P1;durP2;ratioP2;P2;SDS_P1;SDS_P2;PMS_P1;PMS_P2;Temp;Humidity;BMP_temperature;BMP_pressure;BME280_temperature;BME280_humidity;BME280_pressure;Samples;Min_cycle;Max_cycle;Signal;HPM_P1;HPM_P2
2022/11/19 00:01:18;;;;;;;48.70;29.05;;;;;;;;;;6307503;22;20012;-67
2022/11/19 00:03:46;;;;;;;51.78;31.33;;;;;;;;;;6307619;22;20034;-67
2022/11/19 00:06:20;;;;;;;52.10;29.10;;;;;;;;;;6307564;22;20042;-67
2022/11/19 00:08:48;;;;;;;52.17;29.90;;;;;;;;;;6307526;22;20054;-67
2022/11/19 00:12:53;;;;;;;55.63;30.83;;;;;;;;;;6307373;22;20020;-67
2022/11/19 00:14:08;;;;;;;51.63;30.27;;;;;;;;;;6307429;22;20026;-67
2022/11/19 00:16:35;;;;;;;60.55;31.95;;;;;;;;;;6307461;22;20340;-67
2022/11/19 00:19:03;;;;;;;56.63;32.47;;;;;;;;;;6307359;22;20019;-67
2022/11/19 00:21:30;;;;;;;57.88;31.70;;;;;;;;;;6307364;22;20039;-67
2022/11/19 00:23:58;;;;;;;57.17;33.78;;;;;;;;;;6307439;22;20019;-67
2022/11/19 00:26:25;;;;;;;53.42;32.92;;;;;;;;;;6307200;22;20015;-67
2022/11/19 00:28:54;;;;;;;60.40;33.60;;;;;;;;;;6279766;22;20015;-67
2022/11/19 00:31:21;;;;;;;61.17;33.47;;;;;;;;;;6307450;22;20071;-67
2022/11/19 00:33:49;;;;;;;58.15;33.53;;;;;;;;;;6307269;22;20015;-67
2022/11/19 00:36:17;;;;;;;60.75;34.58;;;;;;;;;;6307386;22;20089;-67
2022/11/19 00:38:44;;;;;;;58.45;32.80;;;;;;;;;;6307237;22;20039;-67
2022/11/19 00:41:12;;;;;;;57.20;32.42;;;;;;;;;;6307226;22;20441;-67
2022/11/19 00:43:51;;;;;;;56.45;31.52;;;;;;;;;;6280153;22;20046;-67
2022/11/19 00:46:19;;;;;;;58.65;30.92;;;;;;;;;;6307060;22;20026;-67
2022/11/19 00:48:50;;;;;;;58.97;31.38;;;;;;;;;;6306985;22;20039;-67
2022/11/19 00:51:18;;;;;;;49.20;29.67;;;;;;;;;;6307326;22;20018;-67
2022/11/19 00:53:46;;;;;;;49.33;29.10;;;;;;;;;;6307202;22;20426;-67
2022/11/19 00:56:15;;;;;;;48.70;29.25;;;;;;;;;;6307422;22;20022;-67
2022/11/19 00:58:43;;;;;;;52.97;29.48;;;;;;;;;;6307139;22;20026;-67
2022/11/19 01:01:11;;;;;;;49.45;29.80;;;;;;;;;;6307109;22;20059;-67
2022/11/19 01:03:39;;;;;;;48.97;28.60;;;;;;;;;;6279902;22;20072;-68
2022/11/19 01:06:07;;;;;;;49.33;28.50;;;;;;;;;;6306996;22;20039;-67
2022/11/19 01:08:35;;;;;;;47.45;28.00;;;;;;;;;;6306906;22;20026;-67
2022/11/19 01:11:07;;;;;;;47.55;28.10;;;;;;;;;;6306995;22;20039;-67
2022/11/19 01:13:35;;;;;;;41.45;25.77;;;;;;;;;;6279730;22;20023;-67
2022/11/19 01:16:13;;;;;;;40.03;25.77;;;;;;;;;;6307225;22;20026;-67
2022/11/19 01:18:41;;;;;;;43.70;26.52;;;;;;;;;;6307093;22;20094;-67
2022/11/19 01:21:09;;;;;;;38.97;25.80;;;;;;;;;;6306877;22;20018;-67
2022/11/19 01:23:38;;;;;;;37.03;24.95;;;;;;;;;;6307186;22;20022;-67
2022/11/19 01:26:06;;;;;;;40.10;26.25;;;;;;;;;;6306746;22;20011;-67
2022/11/19 01:28:33;;;;;;;41.40;25.27;;;;;;;;;;6306815;22;20019;-67
2022/11/19 01:31:06;;;;;;;42.90;26.65;;;;;;;;;;6306629;22;20088;-67
2022/11/19 01:33:34;;;;;;;39.40;25.42;;;;;;;;;;6306668;22;20015;-67
2022/11/19 01:36:03;;;;;;;41.72;26.25;;;;;;;;;;6306839;22;20046;-67
2022/11/19 01:38:31;;;;;;;40.08;26.42;;;;;;;;;;6306716;22;20318;-68
2022/11/19 01:40:58;;;;;;;40.97;25.77;;;;;;;;;;6306681;22;20019;-67
2022/11/19 01:43:40;;;;;;;41.30;25.17;;;;;;;;;;6306834;22;20011;-67
2022/11/19 01:46:08;;;;;;;41.55;26.75;;;;;;;;;;6306659;22;20095;-67
2022/11/19 01:48:37;;;;;;;41.67;25.60;;;;;;;;;;6306834;22;20077;-67
2022/11/19 01:51:08;;;;;;;39.38;25.58;;;;;;;;;;6306739;22;20042;-67
2022/11/19 01:53:36;;;;;;;39.45;25.73;;;;;;;;;;6306611;22;20345;-67
2022/11/19 01:56:05;;;;;;;40.42;25.60;;;;;;;;;;6306804;22;20070;-67
2022/11/19 01:58:56;;;;;;;40.38;25.60;;;;;;;;;;6306672;22;20021;-67
2022/11/19 02:01:23;;;;;;;40.55;25.63;;;;;;;;;;6291956;22;20027;-68
2022/11/19 02:03:52;;;;;;;41.60;25.33;;;;;;;;;;6308638;22;20015;-67
2022/11/19 02:06:19;;;;;;;39.55;26.15;;;;;;;;;;6308738;22;20019;-67
2022/11/19 02:08:51;;;;;;;45.05;26.95;;;;;;;;;;6308605;22;20018;-67
2022/11/19 02:11:25;;;;;;;40.30;25.60;;;;;;;;;;6308492;22;20019;-67
2022/11/19 02:14:19;;;;;;;39.08;25.10;;;;;;;;;;6308412;22;20516;-67
2022/11/19 02:17:05;;;;;;;35.85;24.77;;;;;;;;;;6304068;22;20019;-67
2022/11/19 02:19:51;;;;;;;39.13;24.05;;;;;;;;;;6308756;22;20015;-67
2022/11/19 02:22:34;;;;;;;37.08;23.40;;;;;;;;;;6308613;22;20090;-67
2022/11/19 02:25:08;;;;;;;33.65;21.92;;;;;;;;;;6308603;22;20046;-67
2022/11/19 02:27:39;;;;;;;32.17;22.23;;;;;;;;;;6308628;22;20015;-67
2022/11/19 02:30:16;;;;;;;31.77;20.13;;;;;;;;;;6308469;22;20023;-67
2022/11/19 02:32:44;;;;;;;30.60;20.88;;;;;;;;;;6308467;22;20021;-67
2022/11/19 02:35:15;;;;;;;29.02;21.17;;;;;;;;;;6308523;22;20020;-67
2022/11/19 02:37:57;;;;;;;27.63;19.88;;;;;;;;;;6308516;22;20011;-67
2022/11/19 02:40:27;;;;;;;27.95;19.13;;;;;;;;;;6308378;22;20072;-67
2022/11/19 02:43:06;;;;;;;30.33;20.63;;;;;;;;;;6308386;22;20336;-67
2022/11/19 02:45:36;;;;;;;28.70;19.25;;;;;;;;;;6308435;22;20389;-67
2022/11/19 02:48:12;;;;;;;26.33;18.10;;;;;;;;;;6308656;22;20019;-67
2022/11/19 02:50:43;;;;;;;25.85;18.23;;;;;;;;;;6308367;22;20412;-67
2022/11/19 02:53:10;;;;;;;25.20;18.05;;;;;;;;;;6308142;22;20098;-67
2022/11/19 02:55:38;;;;;;;25.38;18.25;;;;;;;;;;6308671;22;20011;-67
2022/11/19 02:58:10;;;;;;;25.75;18.58;;;;;;;;;;6308167;22;20506;-67
2022/11/19 03:06:16;;;;;;;21.63;16.92;;;;;;;;;;6308376;22;20026;-67
2022/11/19 03:08:44;;;;;;;21.33;15.35;;;;;;;;;;6308261;22;20012;-67
2022/11/19 03:11:19;;;;;;;22.08;15.00;;;;;;;;;;6308132;22;20015;-67
2022/11/19 03:16:43;;;;;;;18.35;13.43;;;;;;;;;;6308184;22;20022;-67
2022/11/19 03:19:13;;;;;;;23.65;15.30;;;;;;;;;;6308126;22;20016;-67
2022/11/19 03:21:47;;;;;;;19.63;13.88;;;;;;;;;;6308036;22;20011;-67
2022/11/19 03:24:35;;;;;;;18.75;13.98;;;;;;;;;;6307974;22;20023;-67
2022/11/19 03:27:02;;;;;;;16.65;12.07;;;;;;;;;;6307967;22;20007;-67
2022/11/19 03:29:31;;;;;;;15.20;11.18;;;;;;;;;;6307646;22;20341;-66
2022/11/19 03:32:03;;;;;;;12.52;9.82;;;;;;;;;;6280780;22;20086;-67
2022/11/19 03:34:32;;;;;;;13.07;9.75;;;;;;;;;;6307804;22;20015;-67
2022/11/19 03:37:00;;;;;;;13.20;9.45;;;;;;;;;;6307782;22;20453;-67
2022/11/19 03:39:28;;;;;;;11.55;8.90;;;;;;;;;;6307654;22;20110;-67
2022/11/19 03:41:56;;;;;;;10.85;8.82;;;;;;;;;;6307757;22;20015;-67
2022/11/19 03:44:26;;;;;;;11.20;9.30;;;;;;;;;;6307695;22;20034;-67
2022/11/19 03:46:57;;;;;;;10.32;8.55;;;;;;;;;;6280529;22;20019;-67
2022/11/19 03:49:30;;;;;;;11.20;9.02;;;;;;;;;;6280082;22;20024;-67
2022/11/19 03:52:01;;;;;;;13.98;10.55;;;;;;;;;;6307709;22;20020;-67
2022/11/19 03:54:29;;;;;;;19.48;13.90;;;;;;;;;;6307400;22;20015;-67
2022/11/19 03:56:57;;;;;;;20.17;13.85;;;;;;;;;;6307680;22;20011;-67
2022/11/19 03:59:26;;;;;;;21.48;15.00;;;;;;;;;;6307404;22;20015;-67
2022/11/19 04:01:58;;;;;;;20.58;14.68;;;;;;;;;;6307510;22;20018;-67
2022/11/19 04:04:34;;;;;;;21.05;13.73;;;;;;;;;;6280166;22;20345;-67
2022/11/19 04:07:02;;;;;;;18.92;14.02;;;;;;;;;;6307404;22;20011;-67
2022/11/19 04:09:30;;;;;;;17.75;13.05;;;;;;;;;;6280032;22;20362;-67
2022/11/19 04:11:57;;;;;;;18.08;13.43;;;;;;;;;;6307423;22;20341;-67
2022/11/19 04:14:25;;;;;;;18.48;13.52;;;;;;;;;;6307362;22;20046;-67
2022/11/19 04:16:52;;;;;;;20.13;14.45;;;;;;;;;;6307315;22;20015;-67
2022/11/19 04:19:19;;;;;;;22.95;14.88;;;;;;;;;;6307296;22;20261;-67
2022/11/19 04:21:47;;;;;;;20.95;15.18;;;;;;;;;;6307343;22;20014;-67
2022/11/19 04:24:15;;;;;;;20.05;14.57;;;;;;;;;;6306824;22;20530;-67
2022/11/19 04:26:42;;;;;;;18.33;13.77;;;;;;;;;;6280128;22;20015;-67
2022/11/19 04:29:10;;;;;;;18.00;13.40;;;;;;;;;;6307109;22;20019;-67
2022/11/19 04:31:37;;;;;;;17.00;11.88;;;;;;;;;;6307082;22;20333;-67
2022/11/19 04:34:05;;;;;;;15.80;11.88;;;;;;;;;;6307434;22;20027;-67
2022/11/19 04:36:32;;;;;;;15.40;10.90;;;;;;;;;;6307185;22;20015;-67
2022/11/19 04:39:00;;;;;;;13.63;10.93;;;;;;;;;;6307163;22;20103;-67
2022/11/19 04:41:27;;;;;;;16.17;11.60;;;;;;;;;;6307509;22;20077;-67
2022/11/19 04:43:55;;;;;;;14.80;11.32;;;;;;;;;;6307037;22;20334;-67
2022/11/19 04:46:22;;;;;;;14.20;11.10;;;;;;;;;;6307025;22;20337;-66
2022/11/19 04:48:50;;;;;;;13.73;10.85;;;;;;;;;;6307119;22;20046;-67
2022/11/19 04:51:17;;;;;;;14.45;10.43;;;;;;;;;;6306568;22;20015;-67
2022/11/19 04:53:45;;;;;;;13.23;9.75;;;;;;;;;;6306882;22;20015;-67
2022/11/19 04:56:12;;;;;;;12.85;9.80;;;;;;;;;;6279546;22;20015;-67
2022/11/19 04:58:40;;;;;;;14.23;10.68;;;;;;;;;;6306926;22;20049;-68
2022/11/19 05:01:07;;;;;;;13.68;10.30;;;;;;;;;;6306899;22;20030;-68
2022/11/19 05:03:35;;;;;;;15.10;10.85;;;;;;;;;;6306949;22;20085;-67
2022/11/19 05:06:02;;;;;;;15.25;11.15;;;;;;;;;;6306550;22;20114;-67
2022/11/19 05:08:30;;;;;;;14.38;11.30;;;;;;;;;;6279667;22;20030;-67
2022/11/19 05:10:57;;;;;;;14.70;11.13;;;;;;;;;;6306927;22;20086;-68
2022/11/19 05:13:24;;;;;;;17.55;11.98;;;;;;;;;;6306860;22;20012;-67
2022/11/19 05:15:52;;;;;;;16.92;12.30;;;;;;;;;;6306648;22;20015;-67
2022/11/19 05:18:19;;;;;;;17.15;12.30;;;;;;;;;;6307178;22;20041;-67
2022/11/19 05:20:47;;;;;;;17.13;13.23;;;;;;;;;;6306858;22;20086;-68
2022/11/19 05:23:15;;;;;;;18.20;13.35;;;;;;;;;;6306954;22;20011;-67
2022/11/19 05:25:42;;;;;;;24.42;13.85;;;;;;;;;;6306743;22;20019;-67
2022/11/19 05:28:09;;;;;;;18.80;14.00;;;;;;;;;;6307141;22;20329;-67
2022/11/19 05:30:37;;;;;;;19.95;13.95;;;;;;;;;;6306720;22;20015;-67
2022/11/19 05:33:04;;;;;;;20.05;14.52;;;;;;;;;;6279717;22;20061;-67
2022/11/19 05:35:32;;;;;;;22.08;14.65;;;;;;;;;;6307444;22;20022;-67
2022/11/19 05:37:59;;;;;;;21.55;14.27;;;;;;;;;;6309253;22;20307;-67
2022/11/19 05:40:27;;;;;;;20.75;13.55;;;;;;;;;;6281940;22;20334;-67
2022/11/19 05:42:54;;;;;;;22.42;14.90;;;;;;;;;;6308783;22;20019;-67
2022/11/19 05:45:22;;;;;;;22.23;15.32;;;;;;;;;;6308799;22;20016;-68
2022/11/19 05:47:53;;;;;;;23.33;15.77;;;;;;;;;;6308871;22;20336;-67
2022/11/19 05:50:21;;;;;;;22.17;16.17;;;;;;;;;;6308820;22;20015;-67
2022/11/19 05:52:49;;;;;;;26.58;17.58;;;;;;;;;;6309049;22;20022;-67
2022/11/19 05:55:17;;;;;;;23.90;16.20;;;;;;;;;;6308738;22;20019;-67
2022/11/19 05:57:44;;;;;;;22.65;16.40;;;;;;;;;;6308732;22;20046;-67
2022/11/19 06:00:12;;;;;;;21.73;16.20;;;;;;;;;;6308783;22;20065;-67
2022/11/19 06:02:39;;;;;;;23.35;15.75;;;;;;;;;;6308813;22;20039;-67
2022/11/19 06:05:07;;;;;;;23.08;15.90;;;;;;;;;;6308806;22;20349;-67
2022/11/19 06:07:35;;;;;;;22.23;15.85;;;;;;;;;;6308597;22;20043;-67
2022/11/19 06:10:02;;;;;;;19.95;15.27;;;;;;;;;;6308586;22;20015;-67
2022/11/19 06:12:30;;;;;;;20.45;15.07;;;;;;;;;;6308560;22;20022;-67
2022/11/19 06:14:57;;;;;;;19.15;12.88;;;;;;;;;;6308578;22;20506;-67
2022/11/19 06:17:25;;;;;;;17.90;13.05;;;;;;;;;;6308376;22;20333;-67
2022/11/19 06:19:52;;;;;;;15.45;12.07;;;;;;;;;;6308486;22;20022;-67
2022/11/19 06:22:19;;;;;;;17.90;11.98;;;;;;;;;;6308436;22;20015;-67
2022/11/19 06:24:47;;;;;;;16.42;12.05;;;;;;;;;;6308404;22;20032;-67
2022/11/19 06:27:14;;;;;;;19.33;13.48;;;;;;;;;;6308101;22;20026;-67
2022/11/19 06:29:42;;;;;;;18.17;13.63;;;;;;;;;;6308245;22;20433;-67
2022/11/19 06:32:09;;;;;;;17.52;14.02;;;;;;;;;;6308504;22;20057;-67
2022/11/19 06:34:37;;;;;;;18.52;14.23;;;;;;;;;;6308324;22;20025;-68
2022/11/19 06:37:04;;;;;;;22.35;13.43;;;;;;;;;;6308281;22;20011;-68
2022/11/19 06:39:31;;;;;;;18.45;13.07;;;;;;;;;;6307933;22;20015;-65
2022/11/19 06:42:34;;;;;;;17.00;13.00;;;;;;;;;;6308150;22;20011;-65
2022/11/19 06:44:46;;;;;;;18.17;12.57;;;;;;;;;;6307949;22;20022;-65
2022/11/19 06:47:14;;;;;;;19.45;12.95;;;;;;;;;;6308027;22;20043;-64
2022/11/19 06:49:41;;;;;;;17.65;12.55;;;;;;;;;;6308259;22;20015;-65
2022/11/19 06:52:08;;;;;;;16.88;13.07;;;;;;;;;;6281435;22;20019;-65
2022/11/19 06:54:36;;;;;;;18.15;12.43;;;;;;;;;;6308229;22;20069;-65
2022/11/19 06:57:09;;;;;;;16.23;12.60;;;;;;;;;;6280990;22;20223;-65
2022/11/19 06:59:37;;;;;;;17.35;12.23;;;;;;;;;;6308227;22;20074;-64
2022/11/19 07:02:05;;;;;;;15.80;12.25;;;;;;;;;;6308319;22;20019;-65
2022/11/19 07:04:33;;;;;;;16.15;12.00;;;;;;;;;;6308209;22;20504;-65
2022/11/19 07:07:00;;;;;;;17.25;12.63;;;;;;;;;;6308108;22;20016;-65
2022/11/19 07:09:28;;;;;;;16.02;11.57;;;;;;;;;;6306871;22;20050;-64
2022/11/19 07:11:55;;;;;;;16.23;12.18;;;;;;;;;;6307551;22;20499;-65
2022/11/19 07:14:23;;;;;;;15.70;12.50;;;;;;;;;;6307433;22;20453;-64
2022/11/19 07:16:50;;;;;;;16.95;12.70;;;;;;;;;;6307426;22;20463;-64
2022/11/19 07:19:18;;;;;;;16.80;12.35;;;;;;;;;;6307546;22;20073;-64
2022/11/19 07:21:46;;;;;;;15.10;11.43;;;;;;;;;;6307696;22;20016;-64
2022/11/19 07:24:15;;;;;;;14.43;10.88;;;;;;;;;;6307778;22;20086;-64
2022/11/19 07:26:43;;;;;;;14.63;10.98;;;;;;;;;;6307385;22;20333;-64
2022/11/19 07:29:12;;;;;;;18.35;11.23;;;;;;;;;;6307207;22;20119;-64
2022/11/19 07:31:39;;;;;;;14.15;11.00;;;;;;;;;;6306760;22;20039;-64
2022/11/19 07:34:08;;;;;;;15.82;11.20;;;;;;;;;;6279893;22;20065;-63
2022/11/19 07:36:36;;;;;;;14.05;10.32;;;;;;;;;;6307598;22;20128;-64
2022/11/19 07:39:04;;;;;;;15.55;11.55;;;;;;;;;;6280134;22;20021;-64
2022/11/19 07:44:18;;;;;;;12.73;9.15;;;;;;;;;;6307326;22;20433;-65
2022/11/19 07:46:45;;;;;;;12.93;10.43;;;;;;;;;;6307373;22;20390;-64
2022/11/19 07:49:13;;;;;;;15.20;10.52;;;;;;;;;;6307155;22;20451;-66
2022/11/19 07:51:40;;;;;;;15.02;10.48;;;;;;;;;;6308062;22;20015;-66
2022/11/19 07:54:10;;;;;;;12.63;9.55;;;;;;;;;;6307609;22;20337;-67
2022/11/19 07:56:37;;;;;;;12.30;10.13;;;;;;;;;;6307471;22;20015;-66
2022/11/19 07:59:05;;;;;;;13.32;9.57;;;;;;;;;;6307117;22;20012;-68
2022/11/19 08:01:32;;;;;;;13.82;9.77;;;;;;;;;;6307366;22;20441;-66
2022/11/19 08:04:01;;;;;;;12.93;9.70;;;;;;;;;;6307347;22;20019;-67
2022/11/19 08:06:29;;;;;;;11.13;9.23;;;;;;;;;;6280353;22;20033;-67
2022/11/19 08:08:56;;;;;;;13.40;9.20;;;;;;;;;;6307416;22;20018;-66
2022/11/19 08:11:24;;;;;;;14.15;8.95;;;;;;;;;;6307365;22;20022;-66
2022/11/19 08:13:52;;;;;;;11.88;8.98;;;;;;;;;;6307043;22;20076;-66
2022/11/19 08:19:08;;;;;;;11.65;8.88;;;;;;;;;;6307704;22;20035;-67
2022/11/19 08:21:36;;;;;;;10.68;8.63;;;;;;;;;;6307348;22;20015;-69
2022/11/19 08:24:04;;;;;;;9.57;8.10;;;;;;;;;;6307184;22;20038;-68
2022/11/19 08:26:31;;;;;;;12.23;8.57;;;;;;;;;;6307232;22;20019;-67
2022/11/19 08:28:59;;;;;;;10.52;8.50;;;;;;;;;;6307118;22;20037;-67
2022/11/19 08:31:26;;;;;;;10.25;8.45;;;;;;;;;;6307178;22;20019;-67
2022/11/19 08:33:54;;;;;;;10.00;7.80;;;;;;;;;;6306192;22;20012;-67
2022/11/19 08:36:21;;;;;;;11.63;8.00;;;;;;;;;;6306709;22;20023;-66
2022/11/19 08:38:48;;;;;;;9.07;7.18;;;;;;;;;;6306622;22;20011;-67
2022/11/19 08:44:02;;;;;;;10.50;7.68;;;;;;;;;;6307214;22;20015;-69
2022/11/19 08:46:30;;;;;;;9.70;7.50;;;;;;;;;;6307051;22;20068;-69
2022/11/19 08:48:57;;;;;;;9.73;7.63;;;;;;;;;;6306967;22;20015;-69
2022/11/19 08:51:25;;;;;;;9.07;6.63;;;;;;;;;;6307011;22;20042;-67
2022/11/19 08:53:52;;;;;;;9.38;6.72;;;;;;;;;;6307016;22;20015;-68
2022/11/19 08:56:20;;;;;;;8.98;6.97;;;;;;;;;;6306994;22;20011;-68
2022/11/19 08:58:48;;;;;;;11.00;7.00;;;;;;;;;;6306895;22;20074;-68
2022/11/19 09:01:16;;;;;;;8.20;6.57;;;;;;;;;;6306893;22;20457;-67
2022/11/19 09:03:44;;;;;;;9.15;6.95;;;;;;;;;;6306650;22;20094;-67
2022/11/19 09:06:12;;;;;;;8.63;6.80;;;;;;;;;;6306754;22;20068;-67
2022/11/19 09:08:39;;;;;;;8.50;6.63;;;;;;;;;;6306577;22;20433;-67
2022/11/19 09:11:11;;;;;;;8.90;6.18;;;;;;;;;;6306364;22;20019;-67
2022/11/19 09:13:39;;;;;;;8.13;6.25;;;;;;;;;;6306902;22;20019;-68
2022/11/19 09:16:07;;;;;;;10.18;5.93;;;;;;;;;;6306461;22;20014;-67
2022/11/19 09:18:37;;;;;;;8.73;6.10;;;;;;;;;;6306821;22;20021;-67
2022/11/19 09:21:06;;;;;;;10.25;6.40;;;;;;;;;;6306532;22;20015;-67
2022/11/19 09:23:33;;;;;;;8.88;6.95;;;;;;;;;;6306431;22;20057;-68
2022/11/19 09:26:21;;;;;;;12.80;6.78;;;;;;;;;;6306529;22;20022;-67
2022/11/19 09:28:50;;;;;;;10.65;6.80;;;;;;;;;;6306384;22;20022;-68
2022/11/19 09:31:19;;;;;;;9.70;6.50;;;;;;;;;;6248774;22;20024;-67
2022/11/19 09:33:51;;;;;;;10.88;7.00;;;;;;;;;;6276004;22;20015;-68
2022/11/19 09:36:19;;;;;;;10.38;7.40;;;;;;;;;;6275645;22;20016;-67
2022/11/19 09:38:47;;;;;;;13.27;8.45;;;;;;;;;;6275854;22;20039;-68
2022/11/19 09:41:27;;;;;;;9.90;6.90;;;;;;;;;;6275790;22;20385;-67
2022/11/19 09:44:07;;;;;;;8.75;6.38;;;;;;;;;;6275745;22;20016;-68
2022/11/19 09:46:50;;;;;;;11.13;7.45;;;;;;;;;;6248999;22;20023;-68
2022/11/19 09:49:22;;;;;;;10.93;7.18;;;;;;;;;;6275917;22;20038;-74
2022/11/19 09:51:54;;;;;;;10.82;8.20;;;;;;;;;;6275696;22;20035;-73
2022/11/19 09:54:22;;;;;;;11.25;7.88;;;;;;;;;;6275565;22;20513;-74
2022/11/19 09:56:51;;;;;;;12.00;7.05;;;;;;;;;;6275732;22;20441;-75
2022/11/19 09:59:32;;;;;;;11.80;7.28;;;;;;;;;;6275562;22;20016;-75
2022/11/19 10:01:59;;;;;;;9.57;8.00;;;;;;;;;;6275474;22;20020;-76
2022/11/19 10:04:30;;;;;;;8.10;6.75;;;;;;;;;;6275767;22;20070;-75
2022/11/19 10:06:57;;;;;;;8.98;7.32;;;;;;;;;;6275757;22;20311;-77
2022/11/19 10:09:35;;;;;;;10.05;7.13;;;;;;;;;;6275753;22;20054;-76
2022/11/19 10:12:10;;;;;;;9.00;6.70;;;;;;;;;;6275761;22;20079;-75
2022/11/19 10:14:44;;;;;;;12.30;6.60;;;;;;;;;;6275525;22;20016;-74
2022/11/19 10:17:27;;;;;;;11.80;7.15;;;;;;;;;;6275768;22;20016;-76
2022/11/19 10:20:13;;;;;;;8.32;6.60;;;;;;;;;;6275584;22;20039;-74
2022/11/19 10:22:51;;;;;;;8.70;6.63;;;;;;;;;;6276537;22;20445;-73
2022/11/19 10:25:27;;;;;;;10.32;6.55;;;;;;;;;;6251925;22;20070;-73
2022/11/19 10:28:00;;;;;;;7.80;6.68;;;;;;;;;;6277781;22;20020;-73
2022/11/19 10:30:29;;;;;;;7.88;6.68;;;;;;;;;;6277566;22;20016;-75
2022/11/19 10:33:00;;;;;;;9.73;7.15;;;;;;;;;;6277580;22;20046;-71
2022/11/19 10:35:30;;;;;;;8.00;6.97;;;;;;;;;;6275361;22;20016;-72
2022/11/19 10:37:59;;;;;;;9.05;7.45;;;;;;;;;;6276083;22;20022;-74
2022/11/19 10:40:34;;;;;;;9.30;6.80;;;;;;;;;;6276917;22;20087;-72
2022/11/19 10:43:15;;;;;;;10.52;7.57;;;;;;;;;;6277306;22;20023;-72
2022/11/19 10:45:49;;;;;;;8.80;7.28;;;;;;;;;;6275875;22;20015;-72
2022/11/19 10:48:21;;;;;;;8.65;6.82;;;;;;;;;;6276662;22;20016;-73
2022/11/19 10:50:49;;;;;;;8.63;6.75;;;;;;;;;;6277140;22;20023;-71
2022/11/19 10:53:21;;;;;;;10.15;6.72;;;;;;;;;;6277173;22;20394;-71
2022/11/19 10:55:50;;;;;;;8.85;6.90;;;;;;;;;;6276321;22;20024;-72
2022/11/19 10:58:23;;;;;;;7.60;6.18;;;;;;;;;;6276029;22;20012;-73
2022/11/19 11:00:55;;;;;;;8.50;5.60;;;;;;;;;;6276942;22;20016;-73
2022/11/19 11:03:25;;;;;;;7.95;6.53;;;;;;;;;;6276755;22;20069;-75
2022/11/19 11:05:55;;;;;;;8.35;6.35;;;;;;;;;;6276058;22;20016;-75
2022/11/19 11:08:23;;;;;;;9.70;6.68;;;;;;;;;;6277308;22;20016;-74
2022/11/19 11:10:51;;;;;;;6.47;5.43;;;;;;;;;;6276746;22;20016;-74
2022/11/19 11:16:11;;;;;;;8.98;6.25;;;;;;;;;;6249497;22;20024;-75
2022/11/19 11:18:40;;;;;;;7.22;6.07;;;;;;;;;;6276872;22;20019;-75
2022/11/19 11:21:11;;;;;;;9.30;7.10;;;;;;;;;;6276850;22;20024;-74
2022/11/19 11:23:49;;;;;;;9.80;7.47;;;;;;;;;;6276862;22;20022;-76
2022/11/19 11:26:18;;;;;;;7.80;6.47;;;;;;;;;;6276898;22;20074;-75
2022/11/19 11:29:04;;;;;;;8.65;6.40;;;;;;;;;;6276245;22;20022;-73
2022/11/19 11:31:39;;;;;;;10.23;8.73;;;;;;;;;;6275877;22;20016;-72
2022/11/19 11:34:14;;;;;;;10.60;8.35;;;;;;;;;;6275978;22;20043;-72
2022/11/19 11:36:42;;;;;;;8.82;7.22;;;;;;;;;;6276032;22;20459;-72
2022/11/19 11:39:22;;;;;;;7.20;5.55;;;;;;;;;;6276195;22;20061;-73
2022/11/19 11:41:49;;;;;;;8.00;5.70;;;;;;;;;;6276172;22;20020;-72
2022/11/19 11:44:33;;;;;;;16.02;11.88;;;;;;;;;;6276345;22;20449;-73
2022/11/19 11:47:20;;;;;;;9.95;7.68;;;;;;;;;;6276311;22;20020;-72
2022/11/19 11:50:03;;;;;;;7.13;5.75;;;;;;;;;;6276014;22;20380;-72
2022/11/19 11:52:33;;;;;;;7.28;5.65;;;;;;;;;;6275163;22;20345;-72
2022/11/19 11:55:30;;;;;;;7.38;5.40;;;;;;;;;;6248236;22;20043;-71
2022/11/19 11:58:02;;;;;;;6.40;4.80;;;;;;;;;;6276294;22;20020;-73
2022/11/19 12:00:45;;;;;;;7.18;6.00;;;;;;;;;;6276692;22;20019;-72
2022/11/19 12:03:14;;;;;;;15.18;11.77;;;;;;;;;;6276614;22;20016;-72
2022/11/19 12:05:44;;;;;;;9.55;7.65;;;;;;;;;;6276121;22;20019;-72
2022/11/19 12:08:32;;;;;;;13.30;7.63;;;;;;;;;;6275073;22;20007;-74
2022/11/19 12:11:11;;;;;;;12.10;9.38;;;;;;;;;;6274227;22;20019;-73
2022/11/19 12:13:52;;;;;;;6.55;5.03;;;;;;;;;;6276154;22;20082;-71
2022/11/19 12:16:25;;;;;;;7.15;5.55;;;;;;;;;;6276432;22;20026;-73
2022/11/19 12:19:11;;;;;;;9.50;6.65;;;;;;;;;;6276254;22;20062;-73
2022/11/19 12:21:48;;;;;;;10.38;6.60;;;;;;;;;;6276345;22;20015;-73
2022/11/19 12:24:22;;;;;;;8.45;5.90;;;;;;;;;;6276221;22;20062;-73
2022/11/19 12:26:52;;;;;;;8.88;6.90;;;;;;;;;;6276177;22;20078;-71
2022/11/19 12:29:38;;;;;;;9.20;6.70;;;;;;;;;;6275821;22;20012;-71
2022/11/19 12:32:09;;;;;;;9.32;6.30;;;;;;;;;;6249210;22;20036;-71
2022/11/19 12:34:42;;;;;;;8.20;6.90;;;;;;;;;;6276205;22;20468;-71
2022/11/19 12:37:28;;;;;;;9.25;6.53;;;;;;;;;;6275827;22;20020;-71
2022/11/19 12:40:15;;;;;;;8.40;5.90;;;;;;;;;;6275987;22;20012;-72
2022/11/19 12:42:51;;;;;;;10.75;7.20;;;;;;;;;;6248950;22;20020;-72
2022/11/19 12:45:36;;;;;;;10.25;7.43;;;;;;;;;;6275687;22;20016;-73
2022/11/19 12:48:22;;;;;;;8.18;6.10;;;;;;;;;;6276007;22;20019;-72
2022/11/19 12:50:56;;;;;;;9.55;5.80;;;;;;;;;;6275976;22;20091;-72
2022/11/19 12:53:42;;;;;;;13.90;8.27;;;;;;;;;;6276137;22;20031;-72
2022/11/19 12:56:24;;;;;;;55.58;33.78;;;;;;;;;;6275828;22;20015;-72
2022/11/19 12:59:01;;;;;;;26.13;18.73;;;;;;;;;;6275816;22;20495;-73
2022/11/19 13:01:32;;;;;;;20.15;14.35;;;;;;;;;;6275920;22;20384;-71
2022/11/19 13:04:04;;;;;;;15.38;11.48;;;;;;;;;;6275325;22;20026;-73
2022/11/19 13:06:37;;;;;;;10.50;7.20;;;;;;;;;;6275619;22;20039;-70
2022/11/19 13:09:08;;;;;;;8.75;6.18;;;;;;;;;;6274989;22;20455;-72
2022/11/19 13:11:44;;;;;;;6.95;6.05;;;;;;;;;;6273607;22;20085;-73
2022/11/19 13:14:35;;;;;;;9.57;6.93;;;;;;;;;;6247784;22;20023;-72
2022/11/19 13:17:03;;;;;;;9.32;6.85;;;;;;;;;;6275252;22;20081;-72
2022/11/19 13:19:33;;;;;;;7.88;6.28;;;;;;;;;;6275462;22;20458;-70
2022/11/19 13:22:17;;;;;;;9.10;6.07;;;;;;;;;;6275146;22;20019;-71
2022/11/19 13:25:04;;;;;;;9.25;6.53;;;;;;;;;;6275439;22;20023;-71
2022/11/19 13:27:31;;;;;;;15.05;8.60;;;;;;;;;;6274932;22;20079;-72
2022/11/19 13:30:04;;;;;;;13.85;8.82;;;;;;;;;;6275160;22;20016;-71
2022/11/19 13:32:46;;;;;;;13.30;9.27;;;;;;;;;;6274583;22;20012;-72
2022/11/19 13:35:32;;;;;;;14.77;9.32;;;;;;;;;;6274721;22;20333;-69
2022/11/19 13:38:03;;;;;;;13.77;9.18;;;;;;;;;;6273833;22;20047;-70
2022/11/19 13:40:39;;;;;;;13.98;8.95;;;;;;;;;;6274798;22;20091;-69
2022/11/19 13:46:16;;;;;;;15.50;11.40;;;;;;;;;;6275660;22;20015;-69
2022/11/19 13:48:46;;;;;;;15.20;9.43;;;;;;;;;;6275849;22;20011;-69
2022/11/19 13:51:26;;;;;;;13.05;7.82;;;;;;;;;;6275911;22;20016;-70
2022/11/19 13:53:55;;;;;;;11.15;7.90;;;;;;;;;;6275824;22;20016;-70
2022/11/19 13:56:46;;;;;;;10.88;8.25;;;;;;;;;;6276332;22;20016;-70
2022/11/19 13:59:40;;;;;;;10.50;8.03;;;;;;;;;;6277725;22;20015;-70
2022/11/19 14:02:14;;;;;;;11.32;7.43;;;;;;;;;;6274013;22;20020;-70
2022/11/19 14:05:02;;;;;;;9.93;7.15;;;;;;;;;;6276572;22;20023;-70
2022/11/19 14:07:30;;;;;;;8.77;6.60;;;;;;;;;;6277674;22;20015;-70
2022/11/19 14:10:16;;;;;;;8.35;6.72;;;;;;;;;;6277747;22;20016;-70
2022/11/19 14:12:56;;;;;;;11.55;6.88;;;;;;;;;;6277646;22;20016;-70
2022/11/19 14:27:30;;;;;;;14.68;9.57;;;;;;;;;;6276600;22;20011;-70
2022/11/19 14:30:07;;;;;;;15.10;8.75;;;;;;;;;;6276414;22;20044;-70
2022/11/19 14:32:37;;;;;;;14.52;9.70;;;;;;;;;;6277011;22;20012;-70
2022/11/19 14:35:27;;;;;;;13.88;10.15;;;;;;;;;;6277304;22;20384;-70
2022/11/19 14:37:56;;;;;;;13.55;9.70;;;;;;;;;;6277439;22;20421;-70
2022/11/19 14:40:25;;;;;;;15.60;11.50;;;;;;;;;;6277285;22;20442;-70
2022/11/19 14:46:03;;;;;;;46.05;23.38;;;;;;;;;;6277335;22;20143;-70
2022/11/19 14:48:30;;;;;;;40.80;24.67;;;;;;;;;;6277610;22;20039;-69
2022/11/19 14:51:02;;;;;;;42.30;24.55;;;;;;;;;;6277249;22;20011;-70
2022/11/19 14:53:29;;;;;;;44.40;28.55;;;;;;;;;;6250375;22;20073;-70
2022/11/19 14:55:57;;;;;;;44.67;29.10;;;;;;;;;;6277186;22;20023;-70
2022/11/19 14:58:25;;;;;;;49.75;28.20;;;;;;;;;;6277238;22;20020;-70
2022/11/19 15:01:05;;;;;;;48.25;28.65;;;;;;;;;;6276928;22;20435;-70
2022/11/19 15:03:32;;;;;;;46.35;28.23;;;;;;;;;;6249952;22;20349;-70
2022/11/19 15:06:04;;;;;;;47.30;29.25;;;;;;;;;;6277258;22;20094;-70
2022/11/19 15:08:50;;;;;;;47.80;31.40;;;;;;;;;;6250105;22;20345;-70
2022/11/19 15:11:18;;;;;;;52.28;34.53;;;;;;;;;;6277299;22;20337;-70
2022/11/19 15:13:45;;;;;;;49.40;32.08;;;;;;;;;;6277018;22;20019;-69
2022/11/19 15:16:16;;;;;;;55.42;34.58;;;;;;;;;;6277071;22;20026;-70
2022/11/19 15:18:43;;;;;;;53.70;36.13;;;;;;;;;;6277157;22;20022;-70
2022/11/19 15:21:26;;;;;;;61.78;44.33;;;;;;;;;;6277028;22;20051;-70
2022/11/19 15:23:59;;;;;;;54.45;39.63;;;;;;;;;;6277100;22;20039;-70
2022/11/19 15:26:33;;;;;;;62.85;41.38;;;;;;;;;;6277080;22;20015;-70
2022/11/19 15:29:05;;;;;;;49.30;34.45;;;;;;;;;;6276873;22;20043;-70